sensor_id;sensor_type;location;lat;lon;timestamp;temperature;humidity
68609;SHT31;55581;46.718;7.690;2022-09-03T00:00:17;16.66;82.20
68609;SHT31;55581;46.718;7.690;2022-09-03T00:02:44;16.76;82.34
68609;SHT31;55581;46.718;7.690;2022-09-03T00:05:15;16.77;80.97
68609;SHT31;55581;46.718;7.690;2022-09-03T00:10:42;16.68;83.02
68609;SHT31;55581;46.718;7.690;2022-09-03T00:13:13;16.56;83.43
68609;SHT31;55581;46.718;7.690;2022-09-03T00:15:39;16.44;83.69
68609;SHT31;55581;46.718;7.690;2022-09-03T00:18:16;16.32;84.33
68609;SHT31;55581;46.718;7.690;2022-09-03T00:23:19;16.18;86.37
68609;SHT31;55581;46.718;7.690;2022-09-03T00:28:35;16.14;85.13
68609;SHT31;55581;46.718;7.690;2022-09-03T00:31:24;16.07;86.61
68609;SHT31;55581;46.718;7.690;2022-09-03T00:33:57;16.06;86.50
68609;SHT31;55581;46.718;7.690;2022-09-03T00:36:39;15.97;88.10
68609;SHT31;55581;46.718;7.690;2022-09-03T00:39:10;15.96;86.67
68609;SHT31;55581;46.718;7.690;2022-09-03T00:41:41;15.94;87.29
68609;SHT31;55581;46.718;7.690;2022-09-03T00:51:50;15.94;88.18
68609;SHT31;55581;46.718;7.690;2022-09-03T00:55:10;15.91;88.54
68609;SHT31;55581;46.718;7.690;2022-09-03T00:57:27;15.87;88.74
68609;SHT31;55581;46.718;7.690;2022-09-03T01:00:12;15.91;88.31
68609;SHT31;55581;46.718;7.690;2022-09-03T01:30:39;15.79;87.65
68609;SHT31;55581;46.718;7.690;2022-09-03T01:33:29;15.74;87.16
68609;SHT31;55581;46.718;7.690;2022-09-03T01:38:46;15.72;88.72
68609;SHT31;55581;46.718;7.690;2022-09-03T01:47:08;15.66;89.17
68609;SHT31;55581;46.718;7.690;2022-09-03T01:50:02;15.65;89.33
68609;SHT31;55581;46.718;7.690;2022-09-03T01:58:17;15.70;88.57
68609;SHT31;55581;46.718;7.690;2022-09-03T02:00:50;15.66;88.34
68609;SHT31;55581;46.718;7.690;2022-09-03T02:03:17;15.70;88.96
68609;SHT31;55581;46.718;7.690;2022-09-03T02:05:43;15.72;88.37
68609;SHT31;55581;46.718;7.690;2022-09-03T02:08:11;15.72;89.69
68609;SHT31;55581;46.718;7.690;2022-09-03T02:10:43;15.67;89.32
68609;SHT31;55581;46.718;7.690;2022-09-03T02:16:15;15.67;89.94
68609;SHT31;55581;46.718;7.690;2022-09-03T02:19:06;15.69;89.75
68609;SHT31;55581;46.718;7.690;2022-09-03T02:21:37;15.73;90.11
68609;SHT31;55581;46.718;7.690;2022-09-03T02:24:04;15.70;89.76
68609;SHT31;55581;46.718;7.690;2022-09-03T02:26:30;15.72;90.22
68609;SHT31;55581;46.718;7.690;2022-09-03T02:28:56;15.69;90.13
68609;SHT31;55581;46.718;7.690;2022-09-03T02:31:22;15.73;90.91
68609;SHT31;55581;46.718;7.690;2022-09-03T02:33:48;15.73;90.16
68609;SHT31;55581;46.718;7.690;2022-09-03T02:36:18;15.70;90.30
68609;SHT31;55581;46.718;7.690;2022-09-03T02:38:45;15.69;90.31
68609;SHT31;55581;46.718;7.690;2022-09-03T02:41:11;15.63;89.79
68609;SHT31;55581;46.718;7.690;2022-09-03T02:43:54;15.61;90.12
68609;SHT31;55581;46.718;7.690;2022-09-03T02:46:23;15.65;90.44
68609;SHT31;55581;46.718;7.690;2022-09-03T02:48:51;15.67;90.00
68609;SHT31;55581;46.718;7.690;2022-09-03T02:51:19;15.65;89.79
68609;SHT31;55581;46.718;7.690;2022-09-03T02:53:45;15.69;89.77
68609;SHT31;55581;46.718;7.690;2022-09-03T02:56:11;15.78;89.31
68609;SHT31;55581;46.718;7.690;2022-09-03T02:58:36;15.78;89.93
68609;SHT31;55581;46.718;7.690;2022-09-03T03:01:02;15.76;90.77
68609;SHT31;55581;46.718;7.690;2022-09-03T03:03:28;15.76;91.01
68609;SHT31;55581;46.718;7.690;2022-09-03T03:05:59;15.70;91.34
68609;SHT31;55581;46.718;7.690;2022-09-03T03:08:27;15.72;91.52
68609;SHT31;55581;46.718;7.690;2022-09-03T03:10:57;15.70;92.21
68609;SHT31;55581;46.718;7.690;2022-09-03T03:13:24;15.73;92.65
68609;SHT31;55581;46.718;7.690;2022-09-03T03:15:50;15.70;92.86
68609;SHT31;55581;46.718;7.690;2022-09-03T03:18:15;15.70;92.66
68609;SHT31;55581;46.718;7.690;2022-09-03T03:20:43;15.73;93.31
68609;SHT31;55581;46.718;7.690;2022-09-03T03:23:09;15.62;93.30
68609;SHT31;55581;46.718;7.690;2022-09-03T03:25:36;15.61;92.96
68609;SHT31;55581;46.718;7.690;2022-09-03T03:28:03;15.62;93.25
68609;SHT31;55581;46.718;7.690;2022-09-03T03:30:29;15.65;93.07
68609;SHT31;55581;46.718;7.690;2022-09-03T03:32:55;15.62;93.88
68609;SHT31;55581;46.718;7.690;2022-09-03T03:35:21;15.66;93.32
68609;SHT31;55581;46.718;7.690;2022-09-03T03:37:47;15.63;93.30
68609;SHT31;55581;46.718;7.690;2022-09-03T03:40:12;15.62;93.32
68609;SHT31;55581;46.718;7.690;2022-09-03T03:42:38;15.63;93.37
68609;SHT31;55581;46.718;7.690;2022-09-03T03:45:05;15.66;93.34
68609;SHT31;55581;46.718;7.690;2022-09-03T03:47:31;15.65;93.31
68609;SHT31;55581;46.718;7.690;2022-09-03T03:49:58;15.62;93.19
68609;SHT31;55581;46.718;7.690;2022-09-03T03:52:24;15.63;93.39
68609;SHT31;55581;46.718;7.690;2022-09-03T03:54:51;15.58;93.16
68609;SHT31;55581;46.718;7.690;2022-09-03T03:57:17;15.59;93.40
68609;SHT31;55581;46.718;7.690;2022-09-03T03:59:46;15.49;93.96
68609;SHT31;55581;46.718;7.690;2022-09-03T04:02:12;15.61;93.82
68609;SHT31;55581;46.718;7.690;2022-09-03T04:04:37;15.79;92.50
68609;SHT31;55581;46.718;7.690;2022-09-03T04:07:03;15.82;92.46
68609;SHT31;55581;46.718;7.690;2022-09-03T04:09:29;15.87;91.65
68609;SHT31;55581;46.718;7.690;2022-09-03T04:11:56;15.94;92.13
68609;SHT31;55581;46.718;7.690;2022-09-03T04:14:23;15.99;91.83
68609;SHT31;55581;46.718;7.690;2022-09-03T04:16:48;16.00;90.47
68609;SHT31;55581;46.718;7.690;2022-09-03T04:19:15;16.06;88.93
68609;SHT31;55581;46.718;7.690;2022-09-03T04:21:43;16.16;89.06
68609;SHT31;55581;46.718;7.690;2022-09-03T04:24:09;16.17;90.19
68609;SHT31;55581;46.718;7.690;2022-09-03T04:26:35;16.14;89.25
68609;SHT31;55581;46.718;7.690;2022-09-03T04:29:08;16.13;89.45
68609;SHT31;55581;46.718;7.690;2022-09-03T04:31:35;16.04;90.46
68609;SHT31;55581;46.718;7.690;2022-09-03T04:34:01;16.09;90.48
68609;SHT31;55581;46.718;7.690;2022-09-03T04:36:28;16.03;89.98
68609;SHT31;55581;46.718;7.690;2022-09-03T04:38:57;15.91;90.49
68609;SHT31;55581;46.718;7.690;2022-09-03T04:41:28;15.76;91.08
68609;SHT31;55581;46.718;7.690;2022-09-03T04:43:56;15.72;92.03
68609;SHT31;55581;46.718;7.690;2022-09-03T04:46:24;15.83;91.03
68609;SHT31;55581;46.718;7.690;2022-09-03T04:48:51;15.96;89.18
68609;SHT31;55581;46.718;7.690;2022-09-03T04:51:23;16.11;88.11
68609;SHT31;55581;46.718;7.690;2022-09-03T04:53:53;16.10;88.28
68609;SHT31;55581;46.718;7.690;2022-09-03T04:56:22;16.18;88.63
68609;SHT31;55581;46.718;7.690;2022-09-03T04:58:52;16.20;89.48
68609;SHT31;55581;46.718;7.690;2022-09-03T05:01:20;16.21;90.68
68609;SHT31;55581;46.718;7.690;2022-09-03T05:03:46;16.24;90.88
68609;SHT31;55581;46.718;7.690;2022-09-03T05:06:12;16.28;90.70
68609;SHT31;55581;46.718;7.690;2022-09-03T05:08:38;16.31;90.64
68609;SHT31;55581;46.718;7.690;2022-09-03T05:11:06;16.31;90.43
68609;SHT31;55581;46.718;7.690;2022-09-03T05:13:34;16.35;90.60
68609;SHT31;55581;46.718;7.690;2022-09-03T05:16:06;16.44;90.50
68609;SHT31;55581;46.718;7.690;2022-09-03T05:18:33;16.42;90.98
68609;SHT31;55581;46.718;7.690;2022-09-03T05:21:05;16.45;90.60
68609;SHT31;55581;46.718;7.690;2022-09-03T05:23:34;16.45;90.66
68609;SHT31;55581;46.718;7.690;2022-09-03T05:26:02;16.45;90.36
68609;SHT31;55581;46.718;7.690;2022-09-03T05:28:29;16.44;89.92
68609;SHT31;55581;46.718;7.690;2022-09-03T05:33:23;16.48;90.59
68609;SHT31;55581;46.718;7.690;2022-09-03T05:35:49;16.52;90.56
68609;SHT31;55581;46.718;7.690;2022-09-03T05:38:14;16.49;90.02
68609;SHT31;55581;46.718;7.690;2022-09-03T05:40:41;16.48;89.57
68609;SHT31;55581;46.718;7.690;2022-09-03T05:43:06;16.48;89.21
68609;SHT31;55581;46.718;7.690;2022-09-03T05:45:32;16.47;88.36
68609;SHT31;55581;46.718;7.690;2022-09-03T05:47:59;16.49;88.93
68609;SHT31;55581;46.718;7.690;2022-09-03T05:50:25;16.52;89.52
68609;SHT31;55581;46.718;7.690;2022-09-03T05:55:26;16.52;92.18
68609;SHT31;55581;46.718;7.690;2022-09-03T05:57:53;16.49;92.32
68609;SHT31;55581;46.718;7.690;2022-09-03T06:00:18;16.56;89.08
68609;SHT31;55581;46.718;7.690;2022-09-03T06:02:51;16.62;90.17
68609;SHT31;55581;46.718;7.690;2022-09-03T06:05:17;16.65;89.66
68609;SHT31;55581;46.718;7.690;2022-09-03T06:07:43;16.76;89.93
68609;SHT31;55581;46.718;7.690;2022-09-03T06:10:09;16.83;90.01
68609;SHT31;55581;46.718;7.690;2022-09-03T06:12:36;17.00;87.44
68609;SHT31;55581;46.718;7.690;2022-09-03T06:15:03;17.10;87.00
68609;SHT31;55581;46.718;7.690;2022-09-03T06:17:30;17.11;81.29
68609;SHT31;55581;46.718;7.690;2022-09-03T06:19:55;17.19;80.11
68609;SHT31;55581;46.718;7.690;2022-09-03T06:22:21;17.14;80.20
68609;SHT31;55581;46.718;7.690;2022-09-03T06:24:56;17.13;81.02
68609;SHT31;55581;46.718;7.690;2022-09-03T06:27:21;17.10;85.51
68609;SHT31;55581;46.718;7.690;2022-09-03T06:29:47;17.26;78.26
68609;SHT31;55581;46.718;7.690;2022-09-03T06:32:13;17.31;77.66
68609;SHT31;55581;46.718;7.690;2022-09-03T06:34:39;17.26;80.22
68609;SHT31;55581;46.718;7.690;2022-09-03T06:37:05;17.13;82.27
68609;SHT31;55581;46.718;7.690;2022-09-03T06:39:30;17.16;85.93
68609;SHT31;55581;46.718;7.690;2022-09-03T06:41:56;17.11;85.37
68609;SHT31;55581;46.718;7.690;2022-09-03T06:44:21;17.07;87.08
68609;SHT31;55581;46.718;7.690;2022-09-03T06:46:47;17.03;88.34
68609;SHT31;55581;46.718;7.690;2022-09-03T06:49:13;17.04;89.05
68609;SHT31;55581;46.718;7.690;2022-09-03T06:51:42;17.10;89.95
68609;SHT31;55581;46.718;7.690;2022-09-03T06:54:10;17.23;89.34
68609;SHT31;55581;46.718;7.690;2022-09-03T06:56:37;17.47;88.20
68609;SHT31;55581;46.718;7.690;2022-09-03T06:59:08;17.61;88.50
68609;SHT31;55581;46.718;7.690;2022-09-03T07:01:35;17.95;86.55
68609;SHT31;55581;46.718;7.690;2022-09-03T07:04:03;17.93;85.28
68609;SHT31;55581;46.718;7.690;2022-09-03T07:06:32;18.10;85.03
68609;SHT31;55581;46.718;7.690;2022-09-03T07:08:58;18.31;84.10
68609;SHT31;55581;46.718;7.690;2022-09-03T07:11:25;18.50;84.58
68609;SHT31;55581;46.718;7.690;2022-09-03T07:13:52;18.47;82.59
68609;SHT31;55581;46.718;7.690;2022-09-03T07:18:52;18.58;81.14
68609;SHT31;55581;46.718;7.690;2022-09-03T07:21:19;18.59;81.82
68609;SHT31;55581;46.718;7.690;2022-09-03T07:23:46;18.54;81.82
68609;SHT31;55581;46.718;7.690;2022-09-03T07:26:18;18.40;82.25
68609;SHT31;55581;46.718;7.690;2022-09-03T07:28:45;18.58;83.86
68609;SHT31;55581;46.718;7.690;2022-09-03T07:33:54;18.82;80.36
68609;SHT31;55581;46.718;7.690;2022-09-03T07:36:21;18.91;81.42
68609;SHT31;55581;46.718;7.690;2022-09-03T07:38:47;19.09;79.80
68609;SHT31;55581;46.718;7.690;2022-09-03T07:41:16;19.13;79.86
68609;SHT31;55581;46.718;7.690;2022-09-03T07:43:44;19.16;78.88
68609;SHT31;55581;46.718;7.690;2022-09-03T07:46:22;19.05;78.65
68609;SHT31;55581;46.718;7.690;2022-09-03T07:48:55;19.07;79.11
68609;SHT31;55581;46.718;7.690;2022-09-03T07:51:24;18.96;79.97
68609;SHT31;55581;46.718;7.690;2022-09-03T07:53:52;19.05;80.01
68609;SHT31;55581;46.718;7.690;2022-09-03T07:56:17;19.17;78.59
68609;SHT31;55581;46.718;7.690;2022-09-03T07:58:43;19.06;78.76
68609;SHT31;55581;46.718;7.690;2022-09-03T08:01:11;19.14;78.08
68609;SHT31;55581;46.718;7.690;2022-09-03T08:03:37;19.41;78.47
68609;SHT31;55581;46.718;7.690;2022-09-03T08:06:05;19.77;76.93
68609;SHT31;55581;46.718;7.690;2022-09-03T08:08:31;19.90;73.70
68609;SHT31;55581;46.718;7.690;2022-09-03T08:11:14;20.05;75.29
68609;SHT31;55581;46.718;7.690;2022-09-03T08:13:45;20.24;73.72
68609;SHT31;55581;46.718;7.690;2022-09-03T08:16:13;20.19;71.83
68609;SHT31;55581;46.718;7.690;2022-09-03T08:18:40;20.24;72.23
68609;SHT31;55581;46.718;7.690;2022-09-03T08:21:10;20.29;71.00
68609;SHT31;55581;46.718;7.690;2022-09-03T08:23:39;20.36;70.51
68609;SHT31;55581;46.718;7.690;2022-09-03T08:26:05;20.36;74.99
68609;SHT31;55581;46.718;7.690;2022-09-03T08:28:32;20.20;73.68
68609;SHT31;55581;46.718;7.690;2022-09-03T08:31:15;20.09;75.76
68609;SHT31;55581;46.718;7.690;2022-09-03T08:33:43;20.04;76.79
68609;SHT31;55581;46.718;7.690;2022-09-03T08:36:23;19.58;76.11
68609;SHT31;55581;46.718;7.690;2022-09-03T08:39:00;19.24;77.06
68609;SHT31;55581;46.718;7.690;2022-09-03T08:47:01;18.86;80.62
68609;SHT31;55581;46.718;7.690;2022-09-03T08:52:50;18.61;81.81
68609;SHT31;55581;46.718;7.690;2022-09-03T08:55:35;18.71;82.94
68609;SHT31;55581;46.718;7.690;2022-09-03T08:58:17;18.75;83.62
68609;SHT31;55581;46.718;7.690;2022-09-03T09:06:34;18.76;81.67
68609;SHT31;55581;46.718;7.690;2022-09-03T09:09:11;18.79;81.22
68609;SHT31;55581;46.718;7.690;2022-09-03T09:14:55;19.43;76.75
68609;SHT31;55581;46.718;7.690;2022-09-03T09:23:14;20.37;70.99
68609;SHT31;55581;46.718;7.690;2022-09-03T09:25:48;20.54;69.89
68609;SHT31;55581;46.718;7.690;2022-09-03T09:28:22;20.84;69.49
68609;SHT31;55581;46.718;7.690;2022-09-03T09:30:53;20.98;68.53
68609;SHT31;55581;46.718;7.690;2022-09-03T09:33:19;21.03;65.87
68609;SHT31;55581;46.718;7.690;2022-09-03T09:35:45;21.08;68.89
68609;SHT31;55581;46.718;7.690;2022-09-03T09:38:11;21.22;69.07
68609;SHT31;55581;46.718;7.690;2022-09-03T09:40:42;21.10;68.08
68609;SHT31;55581;46.718;7.690;2022-09-03T09:43:17;20.75;66.10
68609;SHT31;55581;46.718;7.690;2022-09-03T09:45:48;20.68;67.90
68609;SHT31;55581;46.718;7.690;2022-09-03T09:50:46;20.60;66.61
68609;SHT31;55581;46.718;7.690;2022-09-03T09:53:12;20.78;69.85
68609;SHT31;55581;46.718;7.690;2022-09-03T09:55:55;20.81;68.72
68609;SHT31;55581;46.718;7.690;2022-09-03T09:58:24;20.98;69.66
68609;SHT31;55581;46.718;7.690;2022-09-03T10:01:08;21.10;66.76
68609;SHT31;55581;46.718;7.690;2022-09-03T10:06:15;20.40;65.90
68609;SHT31;55581;46.718;7.690;2022-09-03T10:09:14;20.47;69.59
68609;SHT31;55581;46.718;7.690;2022-09-03T10:14:50;20.91;69.02
68609;SHT31;55581;46.718;7.690;2022-09-03T10:17:38;21.15;66.11
68609;SHT31;55581;46.718;7.690;2022-09-03T10:20:14;21.08;67.89
68609;SHT31;55581;46.718;7.690;2022-09-03T10:23:24;21.22;68.97
68609;SHT31;55581;46.718;7.690;2022-09-03T10:26:06;21.12;68.50
68609;SHT31;55581;46.718;7.690;2022-09-03T10:28:35;21.18;67.65
68609;SHT31;55581;46.718;7.690;2022-09-03T10:34:05;20.87;70.86
68609;SHT31;55581;46.718;7.690;2022-09-03T10:37:08;20.95;70.41
68609;SHT31;55581;46.718;7.690;2022-09-03T10:45:31;20.75;69.99
68609;SHT31;55581;46.718;7.690;2022-09-03T11:02:56;19.54;77.66
68609;SHT31;55581;46.718;7.690;2022-09-03T11:08:22;19.20;80.65
68609;SHT31;55581;46.718;7.690;2022-09-03T11:10:53;19.07;80.87
68609;SHT31;55581;46.718;7.690;2022-09-03T11:13:27;18.89;82.66
68609;SHT31;55581;46.718;7.690;2022-09-03T11:16:05;18.72;82.58
68609;SHT31;55581;46.718;7.690;2022-09-03T11:18:42;18.44;83.44
68609;SHT31;55581;46.718;7.690;2022-09-03T11:21:12;18.09;84.80
68609;SHT31;55581;46.718;7.690;2022-09-03T11:23:44;17.99;85.61
68609;SHT31;55581;46.718;7.690;2022-09-03T11:26:13;18.03;86.50
68609;SHT31;55581;46.718;7.690;2022-09-03T11:31:52;17.96;85.36
68609;SHT31;55581;46.718;7.690;2022-09-03T11:34:53;17.99;85.45
68609;SHT31;55581;46.718;7.690;2022-09-03T11:37:24;17.92;86.39
68609;SHT31;55581;46.718;7.690;2022-09-03T11:40:13;17.89;85.05
68609;SHT31;55581;46.718;7.690;2022-09-03T11:42:41;17.83;86.52
68609;SHT31;55581;46.718;7.690;2022-09-03T11:47:49;17.78;87.54
68609;SHT31;55581;46.718;7.690;2022-09-03T11:50:30;17.82;88.13
68609;SHT31;55581;46.718;7.690;2022-09-03T11:58:34;18.04;87.94
68609;SHT31;55581;46.718;7.690;2022-09-03T12:03:35;18.37;86.84
68609;SHT31;55581;46.718;7.690;2022-09-03T12:06:42;18.68;86.26
68609;SHT31;55581;46.718;7.690;2022-09-03T12:09:17;18.93;84.64
68609;SHT31;55581;46.718;7.690;2022-09-03T12:14:51;19.53;80.34
68609;SHT31;55581;46.718;7.690;2022-09-03T12:17:40;19.75;77.81
68609;SHT31;55581;46.718;7.690;2022-09-03T12:20:14;20.08;77.59
68609;SHT31;55581;46.718;7.690;2022-09-03T12:22:40;20.19;76.10
68609;SHT31;55581;46.718;7.690;2022-09-03T12:25:13;20.70;75.67
68609;SHT31;55581;46.718;7.690;2022-09-03T12:27:44;21.03;75.89
68609;SHT31;55581;46.718;7.690;2022-09-03T12:30:16;21.33;74.30
68609;SHT31;55581;46.718;7.690;2022-09-03T12:32:41;21.43;73.98
68609;SHT31;55581;46.718;7.690;2022-09-03T12:35:16;21.44;74.98
68609;SHT31;55581;46.718;7.690;2022-09-03T12:37:43;21.30;73.48
68609;SHT31;55581;46.718;7.690;2022-09-03T12:40:21;21.16;69.92
68609;SHT31;55581;46.718;7.690;2022-09-03T12:42:47;21.19;67.39
68609;SHT31;55581;46.718;7.690;2022-09-03T12:45:13;21.55;70.88
68609;SHT31;55581;46.718;7.690;2022-09-03T12:47:41;21.75;69.94
68609;SHT31;55581;46.718;7.690;2022-09-03T12:50:19;21.70;69.72
68609;SHT31;55581;46.718;7.690;2022-09-03T12:53:00;21.33;68.04
68609;SHT31;55581;46.718;7.690;2022-09-03T13:00:23;21.82;68.14
68609;SHT31;55581;46.718;7.690;2022-09-03T13:03:09;21.95;70.03
68609;SHT31;55581;46.718;7.690;2022-09-03T13:06:13;21.99;68.82
68609;SHT31;55581;46.718;7.690;2022-09-03T13:08:43;22.02;67.49
68609;SHT31;55581;46.718;7.690;2022-09-03T13:11:09;22.06;68.73
68609;SHT31;55581;46.718;7.690;2022-09-03T13:13:36;21.78;67.55
68609;SHT31;55581;46.718;7.690;2022-09-03T13:18:48;21.92;68.36
68609;SHT31;55581;46.718;7.690;2022-09-03T13:44:05;22.23;63.01
68609;SHT31;55581;46.718;7.690;2022-09-03T13:46:57;22.59;64.95
68609;SHT31;55581;46.718;7.690;2022-09-03T13:49:41;22.68;65.28
68609;SHT31;55581;46.718;7.690;2022-09-03T13:55:17;22.49;61.68
68609;SHT31;55581;46.718;7.690;2022-09-03T13:57:48;22.32;63.18
68609;SHT31;55581;46.718;7.690;2022-09-03T14:00:26;22.40;62.40
68609;SHT31;55581;46.718;7.690;2022-09-03T14:05:54;22.02;64.93
68609;SHT31;55581;46.718;7.690;2022-09-03T14:08:42;21.77;65.27
68609;SHT31;55581;46.718;7.690;2022-09-03T14:11:20;21.87;65.92
68609;SHT31;55581;46.718;7.690;2022-09-03T14:14:51;21.87;65.16
68609;SHT31;55581;46.718;7.690;2022-09-03T14:20:07;22.59;62.22
68609;SHT31;55581;46.718;7.690;2022-09-03T14:25:12;23.00;62.16
68609;SHT31;55581;46.718;7.690;2022-09-03T14:27:39;22.97;64.12
68609;SHT31;55581;46.718;7.690;2022-09-03T14:30:16;23.38;63.33
68609;SHT31;55581;46.718;7.690;2022-09-03T14:35:43;23.30;63.46
68609;SHT31;55581;46.718;7.690;2022-09-03T14:41:03;22.75;64.09
68609;SHT31;55581;46.718;7.690;2022-09-03T14:43:49;22.71;66.30
68609;SHT31;55581;46.718;7.690;2022-09-03T14:46:38;22.95;63.36
68609;SHT31;55581;46.718;7.690;2022-09-03T14:54:33;23.30;62.05
68609;SHT31;55581;46.718;7.690;2022-09-03T15:05:18;21.94;67.40
68609;SHT31;55581;46.718;7.690;2022-09-03T15:13:52;21.39;73.13
68609;SHT31;55581;46.718;7.690;2022-09-03T15:16:42;21.08;73.12
68609;SHT31;55581;46.718;7.690;2022-09-03T15:30:17;20.37;76.22
68609;SHT31;55581;46.718;7.690;2022-09-03T15:33:14;20.55;76.59
68609;SHT31;55581;46.718;7.690;2022-09-03T15:41:01;21.50;77.05
68609;SHT31;55581;46.718;7.690;2022-09-03T15:43:32;21.82;76.03
68609;SHT31;55581;46.718;7.690;2022-09-03T15:46:02;22.04;71.37
68609;SHT31;55581;46.718;7.690;2022-09-03T15:48:57;21.81;70.21
68609;SHT31;55581;46.718;7.690;2022-09-03T15:51:25;21.73;70.30
68609;SHT31;55581;46.718;7.690;2022-09-03T15:54:16;21.88;71.71
68609;SHT31;55581;46.718;7.690;2022-09-03T16:02:32;21.99;70.11
68609;SHT31;55581;46.718;7.690;2022-09-03T16:05:35;21.91;71.25
68609;SHT31;55581;46.718;7.690;2022-09-03T16:08:21;21.95;70.33
68609;SHT31;55581;46.718;7.690;2022-09-03T16:16:04;21.91;70.59
68609;SHT31;55581;46.718;7.690;2022-09-03T16:18:39;21.89;71.37
68609;SHT31;55581;46.718;7.690;2022-09-03T16:23:57;21.57;70.86
68609;SHT31;55581;46.718;7.690;2022-09-03T16:29:14;21.10;74.61
68609;SHT31;55581;46.718;7.690;2022-09-03T16:40:15;21.37;72.04
68609;SHT31;55581;46.718;7.690;2022-09-03T16:45:43;21.08;77.24
68609;SHT31;55581;46.718;7.690;2022-09-03T16:56:52;20.78;77.98
68609;SHT31;55581;46.718;7.690;2022-09-03T17:08:02;20.13;79.81
68609;SHT31;55581;46.718;7.690;2022-09-03T17:10:48;19.88;80.61
68609;SHT31;55581;46.718;7.690;2022-09-03T17:18:50;19.46;82.81
68609;SHT31;55581;46.718;7.690;2022-09-03T17:21:36;19.30;83.17
68609;SHT31;55581;46.718;7.690;2022-09-03T17:26:52;19.16;83.18
68609;SHT31;55581;46.718;7.690;2022-09-03T17:47:18;18.67;82.85
68609;SHT31;55581;46.718;7.690;2022-09-03T17:49:56;18.54;83.42
68609;SHT31;55581;46.718;7.690;2022-09-03T17:52:36;18.50;84.14
68609;SHT31;55581;46.718;7.690;2022-09-03T17:58:00;18.33;84.02
68609;SHT31;55581;46.718;7.690;2022-09-03T18:01:05;18.14;85.33
68609;SHT31;55581;46.718;7.690;2022-09-03T18:06:48;18.04;85.38
68609;SHT31;55581;46.718;7.690;2022-09-03T18:14:42;17.95;85.55
68609;SHT31;55581;46.718;7.690;2022-09-03T18:17:26;17.95;85.12
68609;SHT31;55581;46.718;7.690;2022-09-03T18:19:59;17.93;86.43
68609;SHT31;55581;46.718;7.690;2022-09-03T18:25:39;17.83;86.84
68609;SHT31;55581;46.718;7.690;2022-09-03T18:28:37;17.79;86.16
68609;SHT31;55581;46.718;7.690;2022-09-03T18:31:22;17.78;85.76
68609;SHT31;55581;46.718;7.690;2022-09-03T18:34:07;17.82;86.15
68609;SHT31;55581;46.718;7.690;2022-09-03T18:36:51;17.83;86.50
68609;SHT31;55581;46.718;7.690;2022-09-03T18:39:35;17.83;86.10
68609;SHT31;55581;46.718;7.690;2022-09-03T18:48:45;17.76;88.29
68609;SHT31;55581;46.718;7.690;2022-09-03T18:54:59;17.87;86.27
68609;SHT31;55581;46.718;7.690;2022-09-03T19:00:40;18.30;83.52
68609;SHT31;55581;46.718;7.690;2022-09-03T19:06:34;18.38;84.38
68609;SHT31;55581;46.718;7.690;2022-09-03T19:09:47;18.41;84.67
68609;SHT31;55581;46.718;7.690;2022-09-03T19:12:49;18.37;84.81
68609;SHT31;55581;46.718;7.690;2022-09-03T19:15:46;18.33;84.68
68609;SHT31;55581;46.718;7.690;2022-09-03T19:19:02;18.20;86.01
68609;SHT31;55581;46.718;7.690;2022-09-03T19:22:11;18.09;87.08
68609;SHT31;55581;46.718;7.690;2022-09-03T19:25:04;18.00;86.78
68609;SHT31;55581;46.718;7.690;2022-09-03T19:47:42;18.10;87.77
68609;SHT31;55581;46.718;7.690;2022-09-03T19:50:30;18.14;79.28
68609;SHT31;55581;46.718;7.690;2022-09-03T19:53:17;17.65;78.95
68609;SHT31;55581;46.718;7.690;2022-09-03T19:56:14;17.27;84.87
68609;SHT31;55581;46.718;7.690;2022-09-03T19:59:10;16.77;85.74
68609;SHT31;55581;46.718;7.690;2022-09-03T20:01:55;16.72;85.63
68609;SHT31;55581;46.718;7.690;2022-09-03T20:04:57;16.64;84.04
68609;SHT31;55581;46.718;7.690;2022-09-03T20:07:47;16.42;84.77
68609;SHT31;55581;46.718;7.690;2022-09-03T20:10:34;16.59;83.49
68609;SHT31;55581;46.718;7.690;2022-09-03T20:13:09;16.45;87.36
68609;SHT31;55581;46.718;7.690;2022-09-03T20:16:06;16.49;85.43
68609;SHT31;55581;46.718;7.690;2022-09-03T20:24:20;16.52;85.85
68609;SHT31;55581;46.718;7.690;2022-09-03T20:27:20;16.71;86.89
68609;SHT31;55581;46.718;7.690;2022-09-03T20:30:04;16.83;88.98
68609;SHT31;55581;46.718;7.690;2022-09-03T20:36:17;16.92;89.49
68609;SHT31;55581;46.718;7.690;2022-09-03T20:38:24;17.02;88.27
68609;SHT31;55581;46.718;7.690;2022-09-03T20:46:20;17.17;87.98
68609;SHT31;55581;46.718;7.690;2022-09-03T20:48:56;17.03;89.39
68609;SHT31;55581;46.718;7.690;2022-09-03T20:51:32;17.02;88.07
68609;SHT31;55581;46.718;7.690;2022-09-03T20:54:13;17.09;87.45
68609;SHT31;55581;46.718;7.690;2022-09-03T21:05:14;17.09;88.32
68609;SHT31;55581;46.718;7.690;2022-09-03T21:13:14;16.83;89.84
68609;SHT31;55581;46.718;7.690;2022-09-03T21:18:37;16.69;90.43
68609;SHT31;55581;46.718;7.690;2022-09-03T21:26:18;16.75;89.22
68609;SHT31;55581;46.718;7.690;2022-09-03T21:29:40;16.77;88.71
68609;SHT31;55581;46.718;7.690;2022-09-03T21:31:53;16.73;89.68
68609;SHT31;55581;46.718;7.690;2022-09-03T21:34:29;16.72;89.40
68609;SHT31;55581;46.718;7.690;2022-09-03T21:36:55;16.72;88.87
68609;SHT31;55581;46.718;7.690;2022-09-03T21:39:54;16.83;88.65
68609;SHT31;55581;46.718;7.690;2022-09-03T21:44:50;16.58;89.48
68609;SHT31;55581;46.718;7.690;2022-09-03T21:47:18;16.45;89.71
68609;SHT31;55581;46.718;7.690;2022-09-03T21:52:22;16.24;90.55
68609;SHT31;55581;46.718;7.690;2022-09-03T21:54:49;16.09;91.24
68609;SHT31;55581;46.718;7.690;2022-09-03T22:02:36;15.62;92.87
68609;SHT31;55581;46.718;7.690;2022-09-03T22:05:02;15.63;93.17
68609;SHT31;55581;46.718;7.690;2022-09-03T22:13:52;15.44;91.87
68609;SHT31;55581;46.718;7.690;2022-09-03T22:16:37;15.30;93.31
68609;SHT31;55581;46.718;7.690;2022-09-03T22:19:06;15.24;94.43
68609;SHT31;55581;46.718;7.690;2022-09-03T22:21:55;15.36;94.34
68609;SHT31;55581;46.718;7.690;2022-09-03T22:30:10;15.86;95.06
68609;SHT31;55581;46.718;7.690;2022-09-03T22:40:45;15.76;92.43
68609;SHT31;55581;46.718;7.690;2022-09-03T22:46:17;15.56;92.93
68609;SHT31;55581;46.718;7.690;2022-09-03T22:51:15;15.59;94.55
68609;SHT31;55581;46.718;7.690;2022-09-03T22:54:03;15.61;93.47
68609;SHT31;55581;46.718;7.690;2022-09-03T22:56:35;15.56;93.33
68609;SHT31;55581;46.718;7.690;2022-09-03T22:59:22;15.42;93.92
68609;SHT31;55581;46.718;7.690;2022-09-03T23:02:07;15.44;93.76
68609;SHT31;55581;46.718;7.690;2022-09-03T23:04:43;15.39;93.76
68609;SHT31;55581;46.718;7.690;2022-09-03T23:07:30;15.32;94.07
68609;SHT31;55581;46.718;7.690;2022-09-03T23:10:12;15.34;94.01
68609;SHT31;55581;46.718;7.690;2022-09-03T23:12:46;15.44;94.21
68609;SHT31;55581;46.718;7.690;2022-09-03T23:15:22;15.48;94.13